sensor_id;sensor_type;location;lat;lon;timestamp;P1;durP1;ratioP1;P2;durP2;ratioP2
63653;SDS011;49809;47.418;19.080;2022-11-30T00:04:18;10.63;;;6.22;;
63653;SDS011;49809;47.418;19.080;2022-11-30T00:07:50;13.45;;;6.90;;
63653;SDS011;49809;47.418;19.080;2022-11-30T00:16:12;10.80;;;5.15;;
63653;SDS011;49809;47.418;19.080;2022-11-30T00:19:53;14.40;;;6.80;;
63653;SDS011;49809;47.418;19.080;2022-11-30T00:23:25;12.18;;;6.72;;
63653;SDS011;49809;47.418;19.080;2022-11-30T00:27:15;13.95;;;6.25;;
63653;SDS011;49809;47.418;19.080;2022-11-30T00:30:36;13.32;;;6.30;;
63653;SDS011;49809;47.418;19.080;2022-11-30T00:34:12;13.10;;;6.28;;
63653;SDS011;49809;47.418;19.080;2022-11-30T00:37:50;15.27;;;6.60;;
63653;SDS011;49809;47.418;19.080;2022-11-30T00:41:16;12.52;;;6.72;;
63653;SDS011;49809;47.418;19.080;2022-11-30T00:44:51;7.53;;;4.87;;
63653;SDS011;49809;47.418;19.080;2022-11-30T00:48:36;10.00;;;6.15;;
63653;SDS011;49809;47.418;19.080;2022-11-30T00:56:23;15.10;;;6.65;;
63653;SDS011;49809;47.418;19.080;2022-11-30T00:59:45;13.50;;;5.78;;
63653;SDS011;49809;47.418;19.080;2022-11-30T01:03:18;19.40;;;7.25;;
63653;SDS011;49809;47.418;19.080;2022-11-30T01:06:52;10.90;;;5.47;;
63653;SDS011;49809;47.418;19.080;2022-11-30T01:10:13;13.95;;;7.82;;
63653;SDS011;49809;47.418;19.080;2022-11-30T01:18:23;9.65;;;5.80;;
63653;SDS011;49809;47.418;19.080;2022-11-30T01:21:52;9.00;;;4.55;;
63653;SDS011;49809;47.418;19.080;2022-11-30T01:25:55;15.38;;;6.62;;
63653;SDS011;49809;47.418;19.080;2022-11-30T01:29:30;9.68;;;5.60;;
63653;SDS011;49809;47.418;19.080;2022-11-30T01:32:51;10.65;;;4.53;;
63653;SDS011;49809;47.418;19.080;2022-11-30T01:36:29;13.65;;;6.05;;
63653;SDS011;49809;47.418;19.080;2022-11-30T01:40:13;10.43;;;5.28;;
63653;SDS011;49809;47.418;19.080;2022-11-30T01:43:55;12.02;;;6.55;;
63653;SDS011;49809;47.418;19.080;2022-11-30T01:47:51;13.02;;;5.32;;
63653;SDS011;49809;47.418;19.080;2022-11-30T01:51:27;6.20;;;4.07;;
63653;SDS011;49809;47.418;19.080;2022-11-30T01:59:02;11.57;;;5.18;;
63653;SDS011;49809;47.418;19.080;2022-11-30T02:06:21;6.30;;;4.55;;
63653;SDS011;49809;47.418;19.080;2022-11-30T02:10:02;10.85;;;5.53;;
63653;SDS011;49809;47.418;19.080;2022-11-30T02:17:57;9.40;;;4.43;;
63653;SDS011;49809;47.418;19.080;2022-11-30T02:22:00;11.27;;;4.78;;
63653;SDS011;49809;47.418;19.080;2022-11-30T02:30:04;8.02;;;4.72;;
63653;SDS011;49809;47.418;19.080;2022-11-30T02:33:46;10.05;;;4.53;;
63653;SDS011;49809;47.418;19.080;2022-11-30T02:37:25;8.18;;;3.97;;
63653;SDS011;49809;47.418;19.080;2022-11-30T02:41:13;13.02;;;5.53;;
63653;SDS011;49809;47.418;19.080;2022-11-30T02:44:43;8.45;;;3.97;;
63653;SDS011;49809;47.418;19.080;2022-11-30T02:48:27;8.90;;;5.97;;
63653;SDS011;49809;47.418;19.080;2022-11-30T02:52:23;14.43;;;5.50;;
63653;SDS011;49809;47.418;19.080;2022-11-30T02:55:49;11.05;;;4.87;;
63653;SDS011;49809;47.418;19.080;2022-11-30T02:59:19;9.75;;;4.82;;
63653;SDS011;49809;47.418;19.080;2022-11-30T03:02:42;9.27;;;4.93;;
63653;SDS011;49809;47.418;19.080;2022-11-30T03:06:10;12.68;;;5.68;;
63653;SDS011;49809;47.418;19.080;2022-11-30T03:09:49;11.00;;;4.75;;
63653;SDS011;49809;47.418;19.080;2022-11-30T03:13:43;9.32;;;4.65;;
63653;SDS011;49809;47.418;19.080;2022-11-30T03:17:15;11.07;;;5.12;;
63653;SDS011;49809;47.418;19.080;2022-11-30T03:20:42;7.20;;;4.82;;
63653;SDS011;49809;47.418;19.080;2022-11-30T03:24:25;11.82;;;4.45;;
63653;SDS011;49809;47.418;19.080;2022-11-30T03:28:02;10.77;;;5.68;;
63653;SDS011;49809;47.418;19.080;2022-11-30T03:31:33;11.27;;;4.90;;
63653;SDS011;49809;47.418;19.080;2022-11-30T03:35:08;8.23;;;4.43;;
63653;SDS011;49809;47.418;19.080;2022-11-30T03:38:48;10.75;;;4.68;;
63653;SDS011;49809;47.418;19.080;2022-11-30T03:42:25;8.95;;;5.07;;
63653;SDS011;49809;47.418;19.080;2022-11-30T03:45:57;8.95;;;4.35;;
63653;SDS011;49809;47.418;19.080;2022-11-30T03:49:18;13.75;;;4.82;;
63653;SDS011;49809;47.418;19.080;2022-11-30T03:52:39;13.82;;;5.07;;
63653;SDS011;49809;47.418;19.080;2022-11-30T03:56:04;9.18;;;5.15;;
63653;SDS011;49809;47.418;19.080;2022-11-30T03:59:32;7.55;;;4.15;;
63653;SDS011;49809;47.418;19.080;2022-11-30T04:06:46;11.45;;;5.10;;
63653;SDS011;49809;47.418;19.080;2022-11-30T04:10:27;7.85;;;4.10;;
63653;SDS011;49809;47.418;19.080;2022-11-30T04:13:46;5.55;;;4.07;;
63653;SDS011;49809;47.418;19.080;2022-11-30T04:17:18;6.97;;;4.22;;
63653;SDS011;49809;47.418;19.080;2022-11-30T04:20:39;7.95;;;4.68;;
63653;SDS011;49809;47.418;19.080;2022-11-30T04:24:05;10.27;;;4.95;;
63653;SDS011;49809;47.418;19.080;2022-11-30T04:27:29;8.68;;;4.85;;
63653;SDS011;49809;47.418;19.080;2022-11-30T04:31:02;11.82;;;4.87;;
63653;SDS011;49809;47.418;19.080;2022-11-30T04:34:28;7.70;;;3.33;;
63653;SDS011;49809;47.418;19.080;2022-11-30T04:38:03;8.40;;;4.20;;
63653;SDS011;49809;47.418;19.080;2022-11-30T04:41:38;9.80;;;4.10;;
63653;SDS011;49809;47.418;19.080;2022-11-30T04:45:15;9.65;;;5.20;;
63653;SDS011;49809;47.418;19.080;2022-11-30T04:48:49;7.40;;;4.50;;
63653;SDS011;49809;47.418;19.080;2022-11-30T04:52:10;7.18;;;4.18;;
63653;SDS011;49809;47.418;19.080;2022-11-30T04:55:26;11.05;;;5.50;;
63653;SDS011;49809;47.418;19.080;2022-11-30T04:59:01;8.15;;;4.30;;
63653;SDS011;49809;47.418;19.080;2022-11-30T05:02:40;5.53;;;3.45;;
63653;SDS011;49809;47.418;19.080;2022-11-30T05:10:37;8.45;;;4.12;;
63653;SDS011;49809;47.418;19.080;2022-11-30T05:13:56;8.43;;;4.05;;
63653;SDS011;49809;47.418;19.080;2022-11-30T05:20:54;6.82;;;3.80;;
63653;SDS011;49809;47.418;19.080;2022-11-30T05:24:25;6.78;;;3.55;;
63653;SDS011;49809;47.418;19.080;2022-11-30T05:27:47;7.95;;;3.80;;
63653;SDS011;49809;47.418;19.080;2022-11-30T05:31:24;8.13;;;4.03;;
63653;SDS011;49809;47.418;19.080;2022-11-30T05:35:04;8.40;;;4.40;;
63653;SDS011;49809;47.418;19.080;2022-11-30T05:38:31;9.98;;;5.22;;
63653;SDS011;49809;47.418;19.080;2022-11-30T05:45:47;10.32;;;4.15;;
63653;SDS011;49809;47.418;19.080;2022-11-30T05:49:16;7.00;;;4.20;;
63653;SDS011;49809;47.418;19.080;2022-11-30T05:52:53;10.23;;;4.30;;
63653;SDS011;49809;47.418;19.080;2022-11-30T05:56:17;9.93;;;4.87;;
63653;SDS011;49809;47.418;19.080;2022-11-30T05:59:53;7.82;;;4.55;;
63653;SDS011;49809;47.418;19.080;2022-11-30T06:03:27;15.88;;;5.20;;
63653;SDS011;49809;47.418;19.080;2022-11-30T06:07:04;8.75;;;4.28;;
63653;SDS011;49809;47.418;19.080;2022-11-30T06:10:43;9.88;;;3.90;;
63653;SDS011;49809;47.418;19.080;2022-11-30T06:14:31;7.97;;;4.85;;
63653;SDS011;49809;47.418;19.080;2022-11-30T06:17:58;6.75;;;3.92;;
63653;SDS011;49809;47.418;19.080;2022-11-30T06:25:41;8.38;;;4.90;;
63653;SDS011;49809;47.418;19.080;2022-11-30T06:32:59;4.68;;;3.20;;
63653;SDS011;49809;47.418;19.080;2022-11-30T06:36:20;6.90;;;3.53;;
63653;SDS011;49809;47.418;19.080;2022-11-30T06:39:53;13.15;;;3.97;;
63653;SDS011;49809;47.418;19.080;2022-11-30T06:51:12;6.57;;;3.90;;
63653;SDS011;49809;47.418;19.080;2022-11-30T08:21:34;9.10;;;3.00;;
63653;SDS011;49809;47.418;19.080;2022-11-30T08:37:00;7.10;;;3.40;;
63653;SDS011;49809;47.418;19.080;2022-11-30T08:43:56;7.00;;;3.72;;
63653;SDS011;49809;47.418;19.080;2022-11-30T08:47:17;9.45;;;3.47;;
63653;SDS011;49809;47.418;19.080;2022-11-30T08:50:51;8.50;;;4.07;;
63653;SDS011;49809;47.418;19.080;2022-11-30T08:54:37;11.73;;;3.72;;
63653;SDS011;49809;47.418;19.080;2022-11-30T08:57:56;8.20;;;3.30;;
63653;SDS011;49809;47.418;19.080;2022-11-30T09:01:28;9.68;;;4.22;;
63653;SDS011;49809;47.418;19.080;2022-11-30T09:05:01;10.93;;;3.40;;
63653;SDS011;49809;47.418;19.080;2022-11-30T09:08:20;6.40;;;3.40;;
63653;SDS011;49809;47.418;19.080;2022-11-30T09:11:55;4.90;;;3.10;;
63653;SDS011;49809;47.418;19.080;2022-11-30T09:15:28;7.18;;;4.00;;
63653;SDS011;49809;47.418;19.080;2022-11-30T09:18:51;9.32;;;4.00;;
63653;SDS011;49809;47.418;19.080;2022-11-30T09:22:32;9.27;;;3.90;;
63653;SDS011;49809;47.418;19.080;2022-11-30T09:26:07;8.05;;;3.97;;
63653;SDS011;49809;47.418;19.080;2022-11-30T09:29:42;13.35;;;5.18;;
63653;SDS011;49809;47.418;19.080;2022-11-30T09:33:16;7.47;;;3.40;;
63653;SDS011;49809;47.418;19.080;2022-11-30T09:37:00;5.65;;;3.20;;
63653;SDS011;49809;47.418;19.080;2022-11-30T09:40:46;7.93;;;3.58;;
63653;SDS011;49809;47.418;19.080;2022-11-30T09:48:36;6.65;;;3.87;;
63653;SDS011;49809;47.418;19.080;2022-11-30T09:56:19;6.82;;;3.50;;
63653;SDS011;49809;47.418;19.080;2022-11-30T10:00:18;6.05;;;3.83;;
63653;SDS011;49809;47.418;19.080;2022-11-30T10:24:08;8.68;;;3.83;;
63653;SDS011;49809;47.418;19.080;2022-11-30T10:28:21;7.22;;;3.20;;
63653;SDS011;49809;47.418;19.080;2022-11-30T10:31:58;9.32;;;3.92;;
63653;SDS011;49809;47.418;19.080;2022-11-30T10:40:16;2.70;;;1.83;;
63653;SDS011;49809;47.418;19.080;2022-11-30T10:48:30;4.18;;;1.92;;
63653;SDS011;49809;47.418;19.080;2022-11-30T10:56:46;2.22;;;1.55;;
63653;SDS011;49809;47.418;19.080;2022-11-30T11:00:33;4.87;;;2.12;;
63653;SDS011;49809;47.418;19.080;2022-11-30T11:04:39;3.80;;;1.77;;
63653;SDS011;49809;47.418;19.080;2022-11-30T11:12:28;3.80;;;2.08;;
63653;SDS011;49809;47.418;19.080;2022-11-30T11:31:42;3.10;;;1.42;;
63653;SDS011;49809;47.418;19.080;2022-11-30T11:39:37;2.55;;;1.67;;
63653;SDS011;49809;47.418;19.080;2022-11-30T11:43:14;4.20;;;1.92;;
63653;SDS011;49809;47.418;19.080;2022-11-30T11:47:00;4.07;;;2.22;;
63653;SDS011;49809;47.418;19.080;2022-11-30T11:50:58;2.37;;;1.60;;
63653;SDS011;49809;47.418;19.080;2022-11-30T11:54:26;2.78;;;1.80;;
63653;SDS011;49809;47.418;19.080;2022-11-30T12:05:47;3.70;;;1.92;;
63653;SDS011;49809;47.418;19.080;2022-11-30T12:13:50;2.28;;;1.50;;
63653;SDS011;49809;47.418;19.080;2022-11-30T12:38:09;2.85;;;1.73;;
63653;SDS011;49809;47.418;19.080;2022-11-30T12:42:22;3.20;;;1.58;;
63653;SDS011;49809;47.418;19.080;2022-11-30T13:06:40;5.00;;;2.58;;
63653;SDS011;49809;47.418;19.080;2022-11-30T13:22:44;4.15;;;2.25;;
63653;SDS011;49809;47.418;19.080;2022-11-30T13:30:49;3.97;;;1.90;;
63653;SDS011;49809;47.418;19.080;2022-11-30T13:39:25;4.97;;;2.33;;
63653;SDS011;49809;47.418;19.080;2022-11-30T13:43:15;2.20;;;1.30;;
63653;SDS011;49809;47.418;19.080;2022-11-30T13:46:59;4.78;;;1.80;;
63653;SDS011;49809;47.418;19.080;2022-11-30T13:58:11;2.72;;;1.10;;
63653;SDS011;49809;47.418;19.080;2022-11-30T15:07:28;4.72;;;2.50;;
63653;SDS011;49809;47.418;19.080;2022-11-30T15:34:53;3.05;;;2.20;;
63653;SDS011;49809;47.418;19.080;2022-11-30T15:38:38;4.15;;;2.08;;
63653;SDS011;49809;47.418;19.080;2022-11-30T15:42:17;5.87;;;2.37;;
63653;SDS011;49809;47.418;19.080;2022-11-30T15:45:55;4.10;;;2.05;;
63653;SDS011;49809;47.418;19.080;2022-11-30T15:49:24;3.83;;;2.35;;
63653;SDS011;49809;47.418;19.080;2022-11-30T15:53:01;10.43;;;4.05;;
63653;SDS011;49809;47.418;19.080;2022-11-30T15:56:59;4.75;;;3.10;;
63653;SDS011;49809;47.418;19.080;2022-11-30T16:23:35;6.70;;;3.55;;
63653;SDS011;49809;47.418;19.080;2022-11-30T16:27:35;11.73;;;4.43;;
63653;SDS011;49809;47.418;19.080;2022-11-30T16:31:16;7.40;;;3.67;;
63653;SDS011;49809;47.418;19.080;2022-11-30T16:35:36;5.62;;;2.85;;
63653;SDS011;49809;47.418;19.080;2022-11-30T16:39:07;4.53;;;2.85;;
63653;SDS011;49809;47.418;19.080;2022-11-30T16:42:44;6.18;;;2.53;;
63653;SDS011;49809;47.418;19.080;2022-11-30T16:46:23;6.40;;;3.62;;
63653;SDS011;49809;47.418;19.080;2022-11-30T16:50:07;6.30;;;3.20;;
63653;SDS011;49809;47.418;19.080;2022-11-30T16:53:49;5.82;;;2.15;;
63653;SDS011;49809;47.418;19.080;2022-11-30T16:57:26;8.05;;;3.35;;
63653;SDS011;49809;47.418;19.080;2022-11-30T17:04:49;4.32;;;2.42;;
63653;SDS011;49809;47.418;19.080;2022-11-30T17:08:27;7.12;;;2.47;;
63653;SDS011;49809;47.418;19.080;2022-11-30T17:16:10;7.50;;;3.55;;
63653;SDS011;49809;47.418;19.080;2022-11-30T17:19:54;5.22;;;3.78;;
63653;SDS011;49809;47.418;19.080;2022-11-30T17:23:48;6.40;;;3.75;;
63653;SDS011;49809;47.418;19.080;2022-11-30T17:27:12;4.22;;;2.65;;
63653;SDS011;49809;47.418;19.080;2022-11-30T17:31:34;6.93;;;3.70;;
63653;SDS011;49809;47.418;19.080;2022-11-30T17:35:21;12.40;;;4.97;;
63653;SDS011;49809;47.418;19.080;2022-11-30T17:42:40;17.80;;;6.57;;
63653;SDS011;49809;47.418;19.080;2022-11-30T17:47:02;11.45;;;5.25;;
63653;SDS011;49809;47.418;19.080;2022-11-30T17:50:41;15.52;;;6.03;;
63653;SDS011;49809;47.418;19.080;2022-11-30T17:54:31;14.57;;;5.05;;
63653;SDS011;49809;47.418;19.080;2022-11-30T18:01:53;12.32;;;5.78;;
63653;SDS011;49809;47.418;19.080;2022-11-30T18:05:30;16.12;;;6.37;;
63653;SDS011;49809;47.418;19.080;2022-11-30T18:08:57;11.68;;;5.90;;
63653;SDS011;49809;47.418;19.080;2022-11-30T18:12:45;10.50;;;5.18;;
63653;SDS011;49809;47.418;19.080;2022-11-30T18:16:26;9.32;;;4.97;;
63653;SDS011;49809;47.418;19.080;2022-11-30T18:20:10;6.70;;;3.10;;
63653;SDS011;49809;47.418;19.080;2022-11-30T18:23:36;7.80;;;3.97;;
63653;SDS011;49809;47.418;19.080;2022-11-30T18:30:39;9.13;;;4.78;;
63653;SDS011;49809;47.418;19.080;2022-11-30T18:34:53;9.15;;;4.10;;
63653;SDS011;49809;47.418;19.080;2022-11-30T18:38:22;11.90;;;4.50;;
63653;SDS011;49809;47.418;19.080;2022-11-30T18:42:03;5.87;;;3.65;;
63653;SDS011;49809;47.418;19.080;2022-11-30T18:45:29;13.38;;;4.25;;
63653;SDS011;49809;47.418;19.080;2022-11-30T18:49:15;9.23;;;5.00;;
63653;SDS011;49809;47.418;19.080;2022-11-30T18:53:04;9.60;;;4.80;;
63653;SDS011;49809;47.418;19.080;2022-11-30T18:56:29;9.82;;;4.30;;
63653;SDS011;49809;47.418;19.080;2022-11-30T18:59:54;11.48;;;5.03;;
63653;SDS011;49809;47.418;19.080;2022-11-30T19:03:26;16.65;;;5.43;;
63653;SDS011;49809;47.418;19.080;2022-11-30T19:06:55;7.43;;;4.55;;
63653;SDS011;49809;47.418;19.080;2022-11-30T19:21:37;12.48;;;6.53;;
63653;SDS011;49809;47.418;19.080;2022-11-30T19:25:18;12.70;;;6.65;;
63653;SDS011;49809;47.418;19.080;2022-11-30T19:29:15;13.13;;;6.62;;
63653;SDS011;49809;47.418;19.080;2022-11-30T19:32:39;12.32;;;6.05;;
63653;SDS011;49809;47.418;19.080;2022-11-30T19:36:11;21.30;;;8.23;;
63653;SDS011;49809;47.418;19.080;2022-11-30T19:39:58;20.33;;;7.47;;
63653;SDS011;49809;47.418;19.080;2022-11-30T19:43:27;13.65;;;7.43;;
63653;SDS011;49809;47.418;19.080;2022-11-30T19:54:58;16.25;;;8.43;;
63653;SDS011;49809;47.418;19.080;2022-11-30T20:02:49;15.65;;;6.37;;
63653;SDS011;49809;47.418;19.080;2022-11-30T20:06:28;10.50;;;6.78;;
63653;SDS011;49809;47.418;19.080;2022-11-30T20:10:05;11.68;;;5.97;;
63653;SDS011;49809;47.418;19.080;2022-11-30T20:13:38;13.05;;;5.93;;
63653;SDS011;49809;47.418;19.080;2022-11-30T20:17:38;12.93;;;6.37;;
63653;SDS011;49809;47.418;19.080;2022-11-30T20:21:14;13.00;;;5.70;;
63653;SDS011;49809;47.418;19.080;2022-11-30T20:24:53;11.50;;;6.37;;
63653;SDS011;49809;47.418;19.080;2022-11-30T20:28:14;10.13;;;5.47;;
63653;SDS011;49809;47.418;19.080;2022-11-30T20:31:26;12.57;;;6.05;;
63653;SDS011;49809;47.418;19.080;2022-11-30T20:35:19;9.80;;;4.93;;
63653;SDS011;49809;47.418;19.080;2022-11-30T20:42:43;13.30;;;5.20;;
63653;SDS011;49809;47.418;19.080;2022-11-30T20:46:00;14.45;;;5.97;;
63653;SDS011;49809;47.418;19.080;2022-11-30T20:49:18;10.70;;;5.75;;
63653;SDS011;49809;47.418;19.080;2022-11-30T20:52:51;8.48;;;5.20;;
63653;SDS011;49809;47.418;19.080;2022-11-30T20:56:10;12.35;;;6.30;;
63653;SDS011;49809;47.418;19.080;2022-11-30T20:59:43;10.82;;;5.00;;
63653;SDS011;49809;47.418;19.080;2022-11-30T21:03:02;15.10;;;6.37;;
63653;SDS011;49809;47.418;19.080;2022-11-30T21:06:40;10.43;;;5.18;;
63653;SDS011;49809;47.418;19.080;2022-11-30T21:10:10;9.80;;;5.50;;
63653;SDS011;49809;47.418;19.080;2022-11-30T21:13:43;15.20;;;7.43;;
63653;SDS011;49809;47.418;19.080;2022-11-30T21:16:47;8.82;;;5.87;;
63653;SDS011;49809;47.418;19.080;2022-11-30T21:20:15;11.15;;;5.50;;
63653;SDS011;49809;47.418;19.080;2022-11-30T21:23:37;9.77;;;5.05;;
63653;SDS011;49809;47.418;19.080;2022-11-30T21:26:56;16.98;;;5.53;;
63653;SDS011;49809;47.418;19.080;2022-11-30T21:30:38;10.38;;;4.20;;
63653;SDS011;49809;47.418;19.080;2022-11-30T21:33:41;9.77;;;4.00;;
63653;SDS011;49809;47.418;19.080;2022-11-30T21:36:54;10.43;;;5.03;;
63653;SDS011;49809;47.418;19.080;2022-11-30T21:40:15;8.68;;;4.97;;
63653;SDS011;49809;47.418;19.080;2022-11-30T21:43:48;6.95;;;3.85;;
63653;SDS011;49809;47.418;19.080;2022-11-30T21:47:11;9.63;;;5.65;;
63653;SDS011;49809;47.418;19.080;2022-11-30T21:50:42;9.90;;;6.00;;
63653;SDS011;49809;47.418;19.080;2022-11-30T21:54:11;9.85;;;5.40;;
63653;SDS011;49809;47.418;19.080;2022-11-30T21:57:30;6.87;;;4.25;;
63653;SDS011;49809;47.418;19.080;2022-11-30T22:01:09;9.63;;;5.10;;
63653;SDS011;49809;47.418;19.080;2022-11-30T22:04:43;11.35;;;4.68;;
63653;SDS011;49809;47.418;19.080;2022-11-30T22:08:01;9.18;;;4.37;;
63653;SDS011;49809;47.418;19.080;2022-11-30T22:11:25;12.50;;;4.57;;
63653;SDS011;49809;47.418;19.080;2022-11-30T22:15:01;9.40;;;4.62;;
63653;SDS011;49809;47.418;19.080;2022-11-30T22:18:19;10.60;;;4.60;;
63653;SDS011;49809;47.418;19.080;2022-11-30T22:21:38;6.75;;;4.10;;
63653;SDS011;49809;47.418;19.080;2022-11-30T22:25:06;8.70;;;4.20;;
63653;SDS011;49809;47.418;19.080;2022-11-30T22:28:11;8.77;;;4.65;;
63653;SDS011;49809;47.418;19.080;2022-11-30T22:31:31;7.20;;;3.97;;
63653;SDS011;49809;47.418;19.080;2022-11-30T22:34:43;7.60;;;4.07;;
63653;SDS011;49809;47.418;19.080;2022-11-30T22:38:21;6.37;;;3.92;;
63653;SDS011;49809;47.418;19.080;2022-11-30T22:41:49;6.47;;;3.87;;
63653;SDS011;49809;47.418;19.080;2022-11-30T22:45:10;6.82;;;3.35;;
63653;SDS011;49809;47.418;19.080;2022-11-30T22:48:41;6.47;;;4.60;;
63653;SDS011;49809;47.418;19.080;2022-11-30T22:51:57;7.20;;;3.65;;
63653;SDS011;49809;47.418;19.080;2022-11-30T22:55:28;9.63;;;3.70;;
63653;SDS011;49809;47.418;19.080;2022-11-30T22:58:49;7.85;;;3.45;;
63653;SDS011;49809;47.418;19.080;2022-11-30T23:02:25;8.60;;;3.97;;
63653;SDS011;49809;47.418;19.080;2022-11-30T23:06:10;12.07;;;3.75;;
63653;SDS011;49809;47.418;19.080;2022-11-30T23:09:31;9.35;;;3.90;;
63653;SDS011;49809;47.418;19.080;2022-11-30T23:12:46;4.40;;;2.97;;
63653;SDS011;49809;47.418;19.080;2022-11-30T23:16:23;8.85;;;4.28;;
63653;SDS011;49809;47.418;19.080;2022-11-30T23:19:40;6.65;;;3.95;;
63653;SDS011;49809;47.418;19.080;2022-11-30T23:22:59;9.43;;;5.00;;
63653;SDS011;49809;47.418;19.080;2022-11-30T23:26:30;6.85;;;3.70;;
63653;SDS011;49809;47.418;19.080;2022-11-30T23:30:02;8.27;;;2.80;;
63653;SDS011;49809;47.418;19.080;2022-11-30T23:33:37;9.27;;;3.60;;
63653;SDS011;49809;47.418;19.080;2022-11-30T23:37:19;6.72;;;3.20;;
63653;SDS011;49809;47.418;19.080;2022-11-30T23:40:24;7.85;;;4.20;;
63653;SDS011;49809;47.418;19.080;2022-11-30T23:44:00;12.43;;;4.40;;
63653;SDS011;49809;47.418;19.080;2022-11-30T23:51:15;7.50;;;3.58;;
63653;SDS011;49809;47.418;19.080;2022-11-30T23:54:48;9.00;;;4.80;;
63653;SDS011;49809;47.418;19.080;2022-11-30T23:58:07;7.47;;;4.05;;
